Nearby METAR Reports

 

YSRI - Richmond (aus-Af, Australia
Distance from station: WSW 35km
Updated: 18/08/2017 07:00
Clear
Clear
 Wind from W
Wind: W 11 km/h
Temperature: 11°C
Dew Point: 2°C
Humidity: 54%
Barometer: 1009 hPa
Clouds: Clear
Visibility: 10 km
2017/08/17 21:00 YSRI 172100Z AUTO 27006KT 9999 // NCD 11/02 Q1009
YSSY - Sydney Intl Airp, Australia
Distance from station: S 47km
Updated: 18/08/2017 07:00
Clear
Clear
 Wind from WNW
Wind: WNW 26 km/h
Temperature: 12°C
Dew Point: 3°C
Humidity: 54%
Barometer: 1008 hPa
Summary: Clear
Visibility: greater than 10 km
2017/08/17 21:00 YSSY 172100Z 30014KT CAVOK 12/03 Q1008 FM2300 26030G45KT CAVOK FM2100 MOD/SEV TURB BLW 5000FT FM2300 SEV TURB BLW 5000FT
YWLM - Williamtown Arp, Australia
Distance from station: NE 104km
Updated: 18/08/2017 07:00
Partly cloudy
Partly cloudy
 Wind from W
Wind: W 20 km/h
Temperature: 13°C
Dew Point: 2°C
Humidity: 47%
Barometer: 1010 hPa
Clouds: Partly cloudy
Visibility: 10 km
Cloud details: Few Clouds 1067 m
Partly cloudy 2835 m
2017/08/17 21:00 YWLM 172100Z 28011KT 9999 FEW035 SCT093 13/02 Q1010
 
YSNW - Nowra (aus-Navy), Australia
Distance from station: SSW 168km
Updated: 18/08/2017 07:00
Clear
Clear
 Wind from WNW
Wind: WNW 48 km/h, Gust: 76 km/h
Temperature: 10°C
Wind Chill: 6°C
Dew Point: 2°C
Humidity: 58%
Barometer: 1004 hPa
Summary: Clear
Visibility: greater than 10 km
2017/08/17 21:00 YSNW 172100Z 29026G41KT CAVOK 10/02 Q1004 FM2100 SEV TURB BLW 5000FT
YMDG - Mudgee Arpt, Australia
Distance from station: NW 177km
Updated: 18/08/2017 07:00
Mostly cloudy
Mostly cloudy
 Wind from W
Wind: W 28 km/h
Temperature: 8°C
Wind Chill: 4°C
Dew Point: 3°C
Humidity: 71%
Barometer: 1013 hPa
Clouds: Mostly cloudy
Visibility: 10 km
Cloud details: Partly cloudy 1006 m
Mostly cloudy 1158 m
Mostly cloudy 2073 m
2017/08/17 21:00 YMDG 172100Z AUTO 27015KT 9999 // SCT033 BKN038 BKN068 08/03 Q1013
YTRE - Taree Airport, Australia
Distance from station: NE 224km
Updated: 18/08/2017 07:00
Clear
Clear
 Wind from WNW
Wind: WNW 20 km/h
Temperature: 16°C
Dew Point: -1°C
Humidity: 31%
Barometer: 1009 hPa
Clouds: Clear
Visibility: 10 km
2017/08/17 21:00 YTRE 172100Z AUTO 29011KT 9999 // NCD 16/M01 Q1009
 
YSCB - Canberra (civ/Mi, Australia
Distance from station: SW 265km
Updated: 18/08/2017 07:04
Nearby showers, Few clouds
Nearby showers, Few clouds
 Wind from WNW
Wind: WNW 31 km/h, Gust: 50 km/h
Temperature: 4°C
Wind Chill: -2°C
Dew Point: 1°C
Humidity: 81%
Barometer: 1007 hPa
Summary: Nearby Showers
Clouds: Few Clouds
Visibility: 10 km
Cloud details: Few Clouds 671 m
2017/08/17 21:04 YSCB 172104Z 30017G27KT 9999 VCSH FEW022 04/01 Q1007
YSTW - Tamworth Airport, Australia
Distance from station: N 275km
Updated: 18/08/2017 07:00
Clear
Clear
 Wind from NW
Wind: NW 11 km/h
Temperature: 6°C
Wind Chill: 4°C
Dew Point: -2°C
Humidity: 57%
Barometer: 1014 hPa
Clouds: Clear
Visibility: 10 km
2017/08/17 21:00 YSTW 172100Z AUTO 32006KT 9999 // NCD 06/M02 Q1014
YSDU - Dubbo, Australia
Distance from station: WNW 280km
Updated: 18/08/2017 07:00
Partly cloudy
Partly cloudy
 Wind from W
Wind: W 22 km/h
Temperature: 9°C
Wind Chill: 6°C
Dew Point: 3°C
Humidity: 66%
Barometer: 1015 hPa
Clouds: Partly cloudy
Visibility: 10 km
Cloud details: Partly cloudy 1097 m
2017/08/17 21:00 YSDU 172100Z AUTO 27012KT 9999 // SCT036 09/03 Q1015
 
YPMQ - Port Macquarie, Australia
Distance from station: NE 284km
Updated: 18/08/2017 07:07
Clear
Clear
 Wind from NW
Wind: NW 9 km/h
Temperature: 13°C
Dew Point: 5°C
Humidity: 59%
Barometer: 1009 hPa
Clouds: Clear
Visibility: 10 km
2017/08/17 21:07 YPMQ 172107Z AUTO 31005KT 270V040 9999 // NCD 13/05 Q1009
YCBB - Coonabarabran, Australia
Distance from station: NW 300km
Updated: 18/08/2017 07:00

 Wind from SSW
Wind: SSW 22 km/h
Temperature: 7°C
Wind Chill: 4°C
Dew Point: 1°C
Humidity: 66%
Barometer: 1015 hPa
2017/08/17 21:00 YCBB 172100Z AUTO 21012KT //// // ////// 07/01 Q1015